Bilston, United Kingdom
Current Conditions -  °F | °C
As of 9:50 AM on Saturday 29 Nov 2014 (Local Time) from EGBB Reporting Station
Haze Haze  
Wind Chill: 50°   Ceiling: 500
Heat Index: 50°   Visibility: 2.5mi
Dew Point: 48°   Wind: 6mph
Humidity: 94%   Direction: 90°E
Pressure: 29.83"   Gusts: NA
Location:  52.56°N, 2.07°W
Report Text: EGBB 290950Z AUTO 09005KT 4100 HZ OVC005/// 10/09 Q1010
Loading
Personal Weather Stations






























Interactive Weather Map New forecast layout! Learn more

10-Day Weather Forecast

Advertisements
Track Severe Weather on mobile